createdAt,value
2016-03-05T00:00:07.675Z,15.73
2016-03-05T00:01:07.678Z,15.73
2016-03-05T00:02:07.680Z,15.64
2016-03-05T00:03:07.699Z,15.73
2016-03-05T00:04:07.701Z,15.93
2016-03-05T00:05:07.704Z,15.64
2016-03-05T00:06:07.707Z,15.55
2016-03-05T00:07:07.710Z,15.83
2016-03-05T00:08:07.728Z,15.73
2016-03-05T00:09:07.731Z,15.73
2016-03-05T00:10:07.733Z,15.73
2016-03-05T00:11:07.751Z,15.73
2016-03-05T00:12:07.739Z,15.73
2016-03-05T00:13:07.757Z,15.73
2016-03-05T00:14:07.901Z,15.73
2016-03-05T00:15:07.778Z,15.64
2016-03-05T00:16:07.765Z,15.73
2016-03-05T00:17:07.783Z,15.73
2016-03-05T00:18:07.787Z,15.63
2016-03-05T00:19:07.805Z,15.83
2016-03-05T00:20:07.791Z,15.64
2016-03-05T00:21:07.804Z,15.63
2016-03-05T00:22:07.795Z,15.73
2016-03-05T00:23:07.801Z,15.83
2016-03-05T00:24:07.792Z,15.44
2016-03-05T00:25:07.783Z,15.92
2016-03-05T00:26:07.795Z,15.64
2016-03-05T00:27:07.777Z,15.73
2016-03-05T00:28:07.795Z,15.83
2016-03-05T00:29:07.794Z,15.63
2016-03-05T00:30:07.803Z,15.73
2016-03-05T00:31:07.802Z,15.73
2016-03-05T00:32:07.804Z,15.83
2016-03-05T00:33:07.820Z,15.93
2016-03-05T00:34:07.807Z,15.73
2016-03-05T00:35:07.808Z,15.93
2016-03-05T00:36:07.825Z,15.73
2016-03-05T00:37:07.827Z,15.73
2016-03-05T00:38:07.829Z,15.73
2016-03-05T00:39:07.830Z,15.64
2016-03-05T00:40:07.832Z,15.45
2016-03-05T00:41:07.850Z,15.92
2016-03-05T00:42:07.854Z,15.55
2016-03-05T00:43:07.872Z,15.55
2016-03-05T00:44:07.874Z,15.73
2016-03-05T00:45:07.893Z,15.53
2016-03-05T00:46:07.879Z,15.55
2016-03-05T00:47:07.898Z,15.73
2016-03-05T00:48:07.884Z,15.63
2016-03-05T00:49:07.904Z,15.55
2016-03-05T00:50:07.922Z,15.63
2016-03-05T00:51:07.925Z,15.64
2016-03-05T00:52:07.911Z,15.35
2016-03-05T00:53:07.945Z,15.55
2016-03-05T00:54:07.932Z,15.45
2016-03-05T00:55:07.936Z,15.45
2016-03-05T00:56:07.954Z,15.44
2016-03-05T00:57:07.956Z,15.45
2016-03-05T00:58:07.959Z,15.45
2016-03-05T00:59:07.992Z,15.45
2016-03-05T01:00:07.964Z,15.25
2016-03-05T01:01:07.982Z,15.55
2016-03-05T01:02:07.985Z,15.55
2016-03-05T01:03:07.989Z,15.55
2016-03-05T01:04:07.991Z,15.45
2016-03-05T01:05:08.009Z,15.55
2016-03-05T01:06:08.011Z,15.35
2016-03-05T01:07:08.014Z,15.83
2016-03-05T01:08:08.016Z,15.55
2016-03-05T01:09:08.036Z,15.25
2016-03-05T01:10:08.038Z,15.55
2016-03-05T01:11:08.057Z,15.45
2016-03-05T01:12:08.043Z,15.35
2016-03-05T01:13:08.062Z,15.25
2016-03-05T01:14:08.064Z,15.25
2016-03-05T01:15:08.067Z,15.25
2016-03-05T01:16:08.085Z,15.16
2016-03-05T01:17:08.088Z,15.45
2016-03-05T01:18:08.091Z,15.55
2016-03-05T01:19:08.093Z,15.35
2016-03-05T01:20:08.112Z,15.64
2016-03-05T01:21:08.098Z,15.45
2016-03-05T01:22:08.117Z,15.45
2016-03-05T01:23:08.119Z,15.55
2016-03-05T01:24:08.123Z,15.55
2016-03-05T01:25:07.985Z,15.55
2016-03-05T01:26:08.144Z,15.45
2016-03-05T01:27:08.146Z,15.73
2016-03-05T01:28:08.149Z,15.35
2016-03-05T01:29:08.167Z,15.35
2016-03-05T01:30:08.170Z,15.55
2016-03-05T01:31:08.172Z,15.73
2016-03-05T01:32:08.175Z,15.45
2016-03-05T01:33:08.178Z,15.25
2016-03-05T01:34:08.197Z,15.45
2016-03-05T01:35:08.199Z,15.73
2016-03-05T01:36:08.201Z,15.64
2016-03-05T01:37:08.219Z,15.55
2016-03-05T01:38:08.223Z,15.45
2016-03-05T01:39:08.241Z,15.35
2016-03-05T01:40:08.244Z,15.35
2016-03-05T01:41:08.262Z,15.45
2016-03-05T01:42:08.249Z,15.45
2016-03-05T01:43:08.251Z,15.35
2016-03-05T01:44:08.254Z,15.35
2016-03-05T01:45:08.257Z,15.35
2016-03-05T01:46:08.276Z,15.55
2016-03-05T01:47:08.279Z,15.35
2016-03-05T01:48:08.281Z,15.45
2016-03-05T01:49:08.315Z,15.35
2016-03-05T01:50:08.301Z,15.45
2016-03-05T01:51:08.304Z,15.45
2016-03-05T01:52:08.306Z,15.45
2016-03-05T01:53:08.310Z,15.35
2016-03-05T01:54:08.329Z,15.35
2016-03-05T01:55:08.331Z,15.45
2016-03-05T01:56:08.333Z,15.44
2016-03-05T01:57:08.336Z,15.45
2016-03-05T01:58:08.355Z,14.97
2016-03-05T01:59:08.358Z,15.25
2016-03-05T02:00:08.360Z,15.06
2016-03-05T02:01:08.223Z,15.25
2016-03-05T02:02:08.381Z,15.35
2016-03-05T02:03:08.383Z,15.35
2016-03-05T02:04:08.433Z,15.35
2016-03-05T02:05:08.388Z,15.35
2016-03-05T02:06:08.392Z,15.35
2016-03-05T02:07:08.411Z,15.06
2016-03-05T02:08:08.413Z,15.06
2016-03-05T02:09:08.431Z,15.16
2016-03-05T02:10:08.418Z,15.25
2016-03-05T02:11:08.436Z,15.35
2016-03-05T02:12:08.438Z,15.35
2016-03-05T02:13:08.457Z,15.35
2016-03-05T02:14:08.445Z,14.97
2016-03-05T02:15:08.463Z,15.35
2016-03-05T02:16:08.466Z,15.35
2016-03-05T02:17:08.472Z,15.25
2016-03-05T02:18:08.491Z,15.25
2016-03-05T02:19:08.477Z,15.25
2016-03-05T02:20:08.496Z,15.25
2016-03-05T02:21:08.513Z,15.25
2016-03-05T02:22:08.501Z,15.25
2016-03-05T02:23:08.505Z,15.25
2016-03-05T02:24:08.522Z,14.97
2016-03-05T02:25:08.525Z,15.25
2016-03-05T02:26:08.559Z,15.35
2016-03-05T02:27:08.546Z,15.45
2016-03-05T02:28:08.532Z,15.34
2016-03-05T02:29:08.551Z,15.34
2016-03-05T02:30:08.554Z,15.25
2016-03-05T02:31:08.573Z,15.25
2016-03-05T02:32:08.559Z,15.34
2016-03-05T02:33:08.578Z,15.06
2016-03-05T02:34:08.581Z,15.55
2016-03-05T02:35:08.584Z,15.05
2016-03-05T02:36:08.601Z,15.35
2016-03-05T02:37:08.604Z,15.05
2016-03-05T02:38:08.607Z,15.25
2016-03-05T02:39:08.609Z,15.25
2016-03-05T02:40:08.612Z,15.53
2016-03-05T02:41:08.630Z,15.45
2016-03-05T02:42:08.633Z,15.63
2016-03-05T02:43:08.636Z,15.25
2016-03-05T02:44:08.654Z,15.25
2016-03-05T02:45:08.657Z,15.25
2016-03-05T02:46:08.659Z,15.05
2016-03-05T02:47:08.662Z,15.44
2016-03-05T02:48:08.664Z,15.25
2016-03-05T02:49:08.730Z,15.25
2016-03-05T02:50:08.685Z,15.25
2016-03-05T02:51:08.689Z,15.06
2016-03-05T02:52:08.708Z,15.25
2016-03-05T02:53:08.694Z,15.35
2016-03-05T02:54:08.713Z,15.05
2016-03-05T02:55:08.746Z,15.25
2016-03-05T02:56:08.718Z,15.35
2016-03-05T02:57:08.735Z,15.35
2016-03-05T02:58:08.738Z,15.25
2016-03-05T02:59:08.741Z,15.15
2016-03-05T03:00:08.744Z,15.53
2016-03-05T03:01:08.762Z,15.06
2016-03-05T03:02:08.796Z,15.35
2016-03-05T03:03:08.767Z,15.45
2016-03-05T03:04:08.770Z,15.45
2016-03-05T03:05:08.773Z,15.25
2016-03-05T03:06:08.791Z,15.35
2016-03-05T03:07:08.795Z,15.35
2016-03-05T03:08:08.797Z,15.63
2016-03-05T03:09:08.800Z,15.06
2016-03-05T03:10:08.817Z,15.45
2016-03-05T03:11:08.820Z,15.34
2016-03-05T03:12:08.823Z,15.35
2016-03-05T03:13:08.826Z,15.35
2016-03-05T03:14:08.845Z,15.34
2016-03-05T03:15:08.847Z,15.64
2016-03-05T03:16:08.850Z,15.45
2016-03-05T03:17:08.852Z,15.35
2016-03-05T03:18:08.886Z,15.55
2016-03-05T03:19:08.872Z,15.06
2016-03-05T03:20:08.892Z,15.35
2016-03-05T03:21:08.895Z,15.44
2016-03-05T03:22:08.897Z,15.44
2016-03-05T03:23:08.884Z,15.63
2016-03-05T03:24:08.902Z,15.34
2016-03-05T03:25:08.905Z,15.44
2016-03-05T03:26:08.907Z,15.44
2016-03-05T03:27:08.926Z,15.44
2016-03-05T03:28:08.929Z,15.53
2016-03-05T03:29:08.932Z,15.44
2016-03-05T03:30:08.935Z,15.34
2016-03-05T03:31:08.952Z,15.53
2016-03-05T03:32:08.955Z,15.34
2016-03-05T03:33:08.957Z,15.34
2016-03-05T03:34:08.960Z,15.44
2016-03-05T03:35:08.979Z,15.73
2016-03-05T03:36:08.998Z,15.34
2016-03-05T03:37:08.984Z,15.34
2016-03-05T03:38:09.003Z,15.83
2016-03-05T03:39:09.005Z,15.34
2016-03-05T03:40:09.008Z,15.73
2016-03-05T03:41:09.011Z,15.53
2016-03-05T03:42:09.014Z,15.44
2016-03-05T03:43:09.017Z,15.44
2016-03-05T03:44:09.035Z,14.95
2016-03-05T03:45:09.037Z,15.35
2016-03-05T03:46:09.039Z,15.34
2016-03-05T03:47:09.058Z,15.25
2016-03-05T03:48:09.061Z,15.06
2016-03-05T03:49:09.078Z,15.06
2016-03-05T03:50:09.067Z,15.16
2016-03-05T03:51:09.069Z,15.06
2016-03-05T03:52:09.087Z,15.45
2016-03-05T03:53:09.089Z,15.34
2016-03-05T03:54:09.092Z,15.45
2016-03-05T03:55:09.110Z,15.53
2016-03-05T03:56:09.097Z,15.35
2016-03-05T03:57:09.116Z,15.35
2016-03-05T03:58:09.119Z,15.34
2016-03-05T03:59:09.138Z,15.34
2016-03-05T04:00:09.140Z,15.34
2016-03-05T04:01:09.143Z,15.45
2016-03-05T04:02:09.145Z,15.34
2016-03-05T04:03:09.148Z,15.53
2016-03-05T04:04:09.165Z,15.64
2016-03-05T04:05:09.169Z,15.15
2016-03-05T04:06:09.172Z,15.25
2016-03-05T04:07:09.174Z,15.16
2016-03-05T04:08:09.177Z,15.25
2016-03-05T04:09:09.195Z,15.05
2016-03-05T04:10:09.198Z,15.34
2016-03-05T04:11:09.217Z,15.64
2016-03-05T04:12:09.204Z,15.35
2016-03-05T04:13:09.223Z,15.34
2016-03-05T04:14:09.240Z,15.34
2016-03-05T04:15:09.228Z,15.34
2016-03-05T04:16:09.230Z,15.53
2016-03-05T04:17:09.232Z,15.34
2016-03-05T04:18:09.250Z,15.16
2016-03-05T04:19:09.254Z,15.35
2016-03-05T04:20:09.272Z,15.34
2016-03-05T04:21:09.259Z,15.25
2016-03-05T04:22:09.278Z,15.34
2016-03-05T04:23:09.280Z,15.05
2016-03-05T04:24:09.297Z,15.34
2016-03-05T04:25:09.285Z,15.25
2016-03-05T04:26:09.304Z,15.25
2016-03-05T04:27:09.306Z,15.25
2016-03-05T04:28:09.309Z,15.53
2016-03-05T04:29:09.311Z,15.64
2016-03-05T04:30:09.314Z,15.63
2016-03-05T04:31:09.332Z,15.25
2016-03-05T04:32:09.351Z,15.34
2016-03-05T04:33:09.337Z,15.06
2016-03-05T04:34:09.372Z,15.35
2016-03-05T04:35:09.360Z,15.53
2016-03-05T04:36:09.362Z,15.35
2016-03-05T04:37:09.365Z,15.25
2016-03-05T04:38:09.382Z,15.25
2016-03-05T04:39:09.385Z,15.35
2016-03-05T04:40:09.387Z,15.25
2016-03-05T04:41:09.390Z,15.34
2016-03-05T04:42:09.394Z,14.95
2016-03-05T04:43:09.490Z,15.25
2016-03-05T04:44:09.415Z,15.34
2016-03-05T04:45:09.417Z,15.35
2016-03-05T04:46:09.419Z,15.34
2016-03-05T04:47:09.422Z,15.05
2016-03-05T04:48:09.442Z,15.34
2016-03-05T04:49:09.444Z,15.25
2016-03-05T04:50:09.447Z,14.95
2016-03-05T04:51:09.464Z,15.35
2016-03-05T04:52:09.467Z,15.25
2016-03-05T04:53:09.485Z,15.35
2016-03-05T04:54:09.472Z,15.25
2016-03-05T04:55:09.491Z,15.34
2016-03-05T04:56:09.494Z,15.25
2016-03-05T04:57:09.497Z,15.34
2016-03-05T04:58:09.531Z,15.25
2016-03-05T04:59:09.517Z,15.25
2016-03-05T05:00:09.519Z,15.25
2016-03-05T05:01:09.538Z,15.15
2016-03-05T05:02:09.525Z,15.15
2016-03-05T05:03:09.560Z,15.25
2016-03-05T05:04:09.547Z,15.25
2016-03-05T05:05:09.549Z,15.44
2016-03-05T05:06:09.569Z,15.15
2016-03-05T05:07:09.555Z,15.25
2016-03-05T05:08:09.417Z,15.05
2016-03-05T05:09:09.576Z,15.25
2016-03-05T05:10:09.595Z,15.53
2016-03-05T05:11:09.598Z,15.25
2016-03-05T05:12:09.600Z,15.25
2016-03-05T05:13:09.603Z,15.53
2016-03-05T05:14:09.621Z,15.05
2016-03-05T05:15:09.608Z,15.05
2016-03-05T05:16:09.626Z,15.25
2016-03-05T05:17:09.629Z,15.45
2016-03-05T05:18:09.632Z,15.44
2016-03-05T05:19:09.635Z,14.97
2016-03-05T05:20:09.638Z,15.25
2016-03-05T05:21:09.655Z,15.16
2016-03-05T05:22:09.658Z,14.86
2016-03-05T05:23:09.660Z,15.16
2016-03-05T05:24:09.663Z,15.25
2016-03-05T05:25:09.681Z,15.05
2016-03-05T05:26:09.685Z,14.95
2016-03-05T05:27:09.704Z,15.16
2016-03-05T05:28:09.690Z,14.95
2016-03-05T05:29:09.709Z,15.05
2016-03-05T05:30:09.711Z,15.25
2016-03-05T05:31:09.714Z,14.95
2016-03-05T05:32:09.732Z,15.34
2016-03-05T05:33:09.719Z,15.45
2016-03-05T05:34:09.737Z,14.87
2016-03-05T05:35:09.724Z,15.16
2016-03-05T05:36:09.759Z,15.34
2016-03-05T05:37:09.745Z,15.45
2016-03-05T05:38:09.779Z,15.16
2016-03-05T05:39:09.766Z,15.44
2016-03-05T05:40:09.785Z,15.34
2016-03-05T05:41:09.788Z,14.86
2016-03-05T05:42:09.806Z,14.87
2016-03-05T05:43:09.793Z,15.35
2016-03-05T05:44:09.811Z,15.15
2016-03-05T05:45:09.814Z,15.16
2016-03-05T05:46:09.816Z,15.25
2016-03-05T05:47:09.819Z,15.25
2016-03-05T05:48:09.821Z,15.16
2016-03-05T05:49:09.841Z,15.15
2016-03-05T05:50:09.858Z,15.15
2016-03-05T05:51:09.690Z,15.25
2016-03-05T05:52:09.863Z,15.05
2016-03-05T05:53:09.851Z,15.15
2016-03-05T05:54:09.868Z,15.25
2016-03-05T05:55:09.872Z,15.34
2016-03-05T05:56:09.875Z,15.05
2016-03-05T05:57:09.877Z,15.25
2016-03-05T05:58:09.880Z,15.16
2016-03-05T05:59:09.898Z,15.25
2016-03-05T06:00:09.901Z,15.05
2016-03-05T06:01:09.920Z,15.44
2016-03-05T06:02:09.906Z,15.15
2016-03-05T06:03:09.926Z,15.35
2016-03-05T06:04:09.928Z,14.95
2016-03-05T06:05:09.978Z,15.15
2016-03-05T06:06:09.933Z,15.44
2016-03-05T06:07:09.936Z,15.05
2016-03-05T06:08:09.954Z,15.06
2016-03-05T06:09:09.956Z,15.34
2016-03-05T06:10:09.959Z,15.45
2016-03-05T06:11:09.962Z,15.34
2016-03-05T06:12:09.997Z,15.25
2016-03-05T06:13:09.983Z,15.15
2016-03-05T06:14:10.002Z,15.05
2016-03-05T06:15:10.004Z,15.05
2016-03-05T06:16:10.007Z,14.95
2016-03-05T06:17:10.009Z,14.86
2016-03-05T06:18:10.012Z,14.67
2016-03-05T06:19:10.016Z,14.87
2016-03-05T06:20:10.049Z,14.95
2016-03-05T06:21:10.036Z,14.87
2016-03-05T06:22:10.038Z,15.25
2016-03-05T06:23:10.040Z,15.15
2016-03-05T06:24:10.043Z,14.95
2016-03-05T06:25:10.062Z,14.87
2016-03-05T06:26:10.065Z,14.77
2016-03-05T06:27:10.083Z,14.87
2016-03-05T06:28:10.071Z,14.87
2016-03-05T06:29:10.088Z,14.87
2016-03-05T06:30:10.090Z,14.87
2016-03-05T06:31:10.109Z,15.34
2016-03-05T06:32:10.644Z,15.15
2016-03-05T06:33:10.115Z,14.86
2016-03-05T06:34:10.117Z,14.77
2016-03-05T06:35:10.121Z,15.25
2016-03-05T06:36:10.139Z,14.86
2016-03-05T06:37:10.125Z,15.05
2016-03-05T06:38:10.144Z,15.05
2016-03-05T06:39:10.147Z,14.67
2016-03-05T06:40:10.150Z,14.77
2016-03-05T06:41:10.153Z,15.05
2016-03-05T06:42:10.186Z,15.35
2016-03-05T06:43:10.173Z,14.76
2016-03-05T06:44:10.191Z,14.77
2016-03-05T06:45:10.178Z,14.77
2016-03-05T06:46:10.196Z,14.87
2016-03-05T06:47:10.199Z,14.87
2016-03-05T06:48:10.219Z,15.06
2016-03-05T06:49:10.205Z,14.76
2016-03-05T06:50:10.224Z,14.67
2016-03-05T06:51:10.226Z,14.76
2016-03-05T06:52:10.229Z,14.76
2016-03-05T06:53:10.246Z,14.67
2016-03-05T06:54:10.249Z,14.86
2016-03-05T06:55:10.252Z,14.87
2016-03-05T06:56:10.255Z,14.86
2016-03-05T06:57:10.274Z,14.87
2016-03-05T06:58:10.291Z,14.76
2016-03-05T06:59:10.279Z,14.95
2016-03-05T07:00:10.281Z,14.87
2016-03-05T07:01:10.284Z,14.87
2016-03-05T07:02:10.302Z,14.58
2016-03-05T07:03:10.133Z,14.77
2016-03-05T07:04:10.324Z,14.77
2016-03-05T07:05:10.326Z,14.77
2016-03-05T07:06:10.313Z,14.97
2016-03-05T07:07:10.331Z,14.95
2016-03-05T07:08:10.334Z,15.05
2016-03-05T07:09:10.352Z,15.15
2016-03-05T07:10:10.339Z,15.25
2016-03-05T07:11:10.342Z,15.15
2016-03-05T07:12:10.361Z,14.87
2016-03-05T07:13:10.394Z,15.34
2016-03-05T07:14:10.381Z,15.25
2016-03-05T07:15:10.368Z,15.15
2016-03-05T07:16:10.386Z,14.67
2016-03-05T07:17:10.405Z,15.25
2016-03-05T07:18:10.392Z,15.25
2016-03-05T07:19:10.411Z,15.05
2016-03-05T07:20:10.414Z,14.95
2016-03-05T07:21:10.416Z,14.95
2016-03-05T07:22:10.418Z,15.35
2016-03-05T07:23:10.437Z,15.34
2016-03-05T07:24:10.440Z,14.77
2016-03-05T07:25:10.443Z,15.15
2016-03-05T07:26:10.445Z,15.35
2016-03-05T07:27:10.448Z,15.25
2016-03-05T07:28:10.466Z,14.87
2016-03-05T07:29:10.485Z,14.76
2016-03-05T07:30:10.471Z,14.77
2016-03-05T07:31:10.505Z,14.76
2016-03-05T07:32:10.492Z,14.67
2016-03-05T07:33:10.496Z,14.87
2016-03-05T07:34:10.498Z,14.97
2016-03-05T07:35:10.515Z,14.67
2016-03-05T07:36:10.503Z,14.58
2016-03-05T07:37:10.521Z,14.87
2016-03-05T07:38:10.523Z,14.48
2016-03-05T07:39:10.526Z,14.1
2016-03-05T07:40:10.529Z,13.91
2016-03-05T07:41:10.548Z,13.62
2016-03-05T07:42:10.551Z,13.53
2016-03-05T07:43:10.569Z,13.24
2016-03-05T07:44:10.556Z,13.04
2016-03-05T07:45:10.574Z,13.54
2016-03-05T07:46:10.577Z,13.44
2016-03-05T07:47:10.595Z,13.15
2016-03-05T07:48:10.582Z,12.96
2016-03-05T07:49:10.601Z,12.67
2016-03-05T07:50:10.603Z,12.67
2016-03-05T07:51:10.622Z,12.29
2016-03-05T07:52:10.624Z,12.29
2016-03-05T07:53:10.627Z,12.38
2016-03-05T07:54:10.630Z,12.39
2016-03-05T07:55:10.632Z,12.19
2016-03-05T07:56:10.651Z,12.19
2016-03-05T07:57:10.654Z,12.29
2016-03-05T07:58:10.672Z,12.39
2016-03-05T07:59:10.659Z,12.29
2016-03-05T08:00:10.677Z,12.19
2016-03-05T08:01:10.679Z,12.19
2016-03-05T08:02:10.699Z,12.29
2016-03-05T08:03:10.685Z,11.9
2016-03-05T08:04:10.704Z,12.19
2016-03-05T08:05:10.551Z,11.9
2016-03-05T08:06:10.710Z,12.19
2016-03-05T08:07:10.712Z,11.52
2016-03-05T08:08:10.715Z,11.91
2016-03-05T08:09:10.733Z,11.8
2016-03-05T08:10:10.736Z,11.52
2016-03-05T08:11:10.754Z,11.62
2016-03-05T08:12:10.757Z,11.71
2016-03-05T08:13:10.776Z,11.61
2016-03-05T08:14:10.762Z,11.62
2016-03-05T08:15:10.765Z,11.71
2016-03-05T08:16:10.784Z,11.71
2016-03-05T08:17:10.802Z,11.71
2016-03-05T08:18:10.790Z,11.81
2016-03-05T08:19:10.651Z,12.39
2016-03-05T08:20:10.809Z,12.1
2016-03-05T08:21:10.828Z,12
2016-03-05T08:22:10.831Z,12.29
2016-03-05T08:23:10.834Z,12.29
2016-03-05T08:24:10.837Z,12.19
2016-03-05T08:25:10.855Z,12
2016-03-05T08:26:10.873Z,12.1
2016-03-05T08:27:10.861Z,12.48
2016-03-05T08:28:10.863Z,12.29
2016-03-05T08:29:10.881Z,12.19
2016-03-05T08:30:10.883Z,12.19
2016-03-05T08:31:10.886Z,12.48
2016-03-05T08:32:10.905Z,12.48
2016-03-05T08:33:10.922Z,12.29
2016-03-05T08:34:10.926Z,12.29
2016-03-05T08:35:10.928Z,12.39
2016-03-05T08:36:10.931Z,12.19
2016-03-05T08:37:10.933Z,12.29
2016-03-05T08:38:10.936Z,12.29
2016-03-05T08:39:10.955Z,12.48
2016-03-05T08:40:10.957Z,12.38
2016-03-05T08:41:10.960Z,12.57
2016-03-05T08:42:10.979Z,12.67
2016-03-05T08:43:10.982Z,12.77
2016-03-05T08:44:10.984Z,12.77
2016-03-05T08:45:11.002Z,12.67
2016-03-05T08:46:11.005Z,12.67
2016-03-05T08:47:11.007Z,12.67
2016-03-05T08:48:11.026Z,12.57
2016-03-05T08:49:11.028Z,12.57
2016-03-05T08:50:11.048Z,12.96
2016-03-05T08:51:11.034Z,12.87
2016-03-05T08:52:11.053Z,12.57
2016-03-05T08:53:11.055Z,12.87
2016-03-05T08:54:11.058Z,12.96
2016-03-05T08:55:11.076Z,13.25
2016-03-05T08:56:10.922Z,13.15
2016-03-05T08:57:11.081Z,13.06
2016-03-05T08:58:11.084Z,13.15
2016-03-05T08:59:11.103Z,13.15
2016-03-05T09:00:11.120Z,12.96
2016-03-05T09:01:11.123Z,13.15
2016-03-05T09:02:11.126Z,13.15
2016-03-05T09:03:11.129Z,13.15
2016-03-05T09:04:11.147Z,13.25
2016-03-05T09:05:11.149Z,13.45
2016-03-05T09:06:11.168Z,13.44
2016-03-05T09:07:11.171Z,13.35
2016-03-05T09:08:11.174Z,13.24
2016-03-05T09:09:11.177Z,13.44
2016-03-05T09:10:11.054Z,13.24
2016-03-05T09:11:11.197Z,13.34
2016-03-05T09:12:11.199Z,13.44
2016-03-05T09:13:11.218Z,13.44
2016-03-05T09:14:11.205Z,13.63
2016-03-05T09:15:11.224Z,13.54
2016-03-05T09:16:11.226Z,13.54
2016-03-05T09:17:11.245Z,13.15
2016-03-05T09:18:11.247Z,13.34
2016-03-05T09:19:11.250Z,13.24
2016-03-05T09:20:11.268Z,13.63
2016-03-05T09:21:11.271Z,13.34
2016-03-05T09:22:11.289Z,13.15
2016-03-05T09:23:11.276Z,13.24
2016-03-05T09:24:11.295Z,13.24
2016-03-05T09:25:11.297Z,13.24
2016-03-05T09:26:11.300Z,13.24
2016-03-05T09:27:11.306Z,13.34
2016-03-05T09:28:11.294Z,13.24
2016-03-05T09:29:11.298Z,13.15
2016-03-05T09:30:11.287Z,13.34
2016-03-05T09:31:11.275Z,13.24
2016-03-05T09:32:11.272Z,13.15
2016-03-05T09:33:11.285Z,13.24
2016-03-05T09:34:11.283Z,13.24
2016-03-05T09:35:11.281Z,13.24
2016-03-05T09:36:11.294Z,13.15
2016-03-05T09:37:11.279Z,13.63
2016-03-05T09:38:11.295Z,13.63
2016-03-05T09:39:11.296Z,13.15
2016-03-05T09:40:11.296Z,13.24
2016-03-05T09:41:11.344Z,13.15
2016-03-05T09:42:11.315Z,13.15
2016-03-05T09:43:11.318Z,13.63
2016-03-05T09:44:11.336Z,13.63
2016-03-05T09:45:11.338Z,13.63
2016-03-05T09:46:11.341Z,13.34
2016-03-05T09:47:11.358Z,13.05
2016-03-05T09:48:11.360Z,13.05
2016-03-05T09:49:11.362Z,13.15
2016-03-05T09:50:11.364Z,13.05
2016-03-05T09:51:11.383Z,13.15
2016-03-05T09:52:11.386Z,13.73
2016-03-05T09:53:11.388Z,13.54
2016-03-05T09:54:11.406Z,13.63
2016-03-05T09:55:11.409Z,13.63
2016-03-05T09:56:11.428Z,13.15
2016-03-05T09:57:11.414Z,13.15
2016-03-05T09:58:11.449Z,13.15
2016-03-05T09:59:11.436Z,13.15
2016-03-05T10:00:11.455Z,13.24
2016-03-05T10:01:11.457Z,13.44
2016-03-05T10:02:11.459Z,13.24
2016-03-05T10:03:11.493Z,13.24
2016-03-05T10:04:11.480Z,13.24
2016-03-05T10:05:11.483Z,13.15
2016-03-05T10:06:11.502Z,13.15
2016-03-05T10:07:11.535Z,13.44
2016-03-05T10:08:11.507Z,13.24
2016-03-05T10:09:11.525Z,13.24
2016-03-05T10:10:11.528Z,13.44
2016-03-05T10:11:11.545Z,13.25
2016-03-05T10:12:11.549Z,13.25
2016-03-05T10:13:11.551Z,13.44
2016-03-05T10:14:11.554Z,13.24
2016-03-05T10:15:11.557Z,13.24
2016-03-05T10:16:11.576Z,13.34
2016-03-05T10:17:11.578Z,13.24
2016-03-05T10:18:11.580Z,13.34
2016-03-05T10:19:11.583Z,13.34
2016-03-05T10:20:11.601Z,13.34
2016-03-05T10:21:11.604Z,13.34
2016-03-05T10:22:11.607Z,13.24
2016-03-05T10:23:11.609Z,13.34
2016-03-05T10:24:11.644Z,13.24
2016-03-05T10:25:11.474Z,13.34
2016-03-05T10:26:11.649Z,13.24
2016-03-05T10:27:11.652Z,13.15
2016-03-05T10:28:11.655Z,13.15
2016-03-05T10:29:11.673Z,13.05
2016-03-05T10:30:11.675Z,13.15
2016-03-05T10:31:11.678Z,13.24
2016-03-05T10:32:11.680Z,13.15
2016-03-05T10:33:11.699Z,13.15
2016-03-05T10:34:11.701Z,13.15
2016-03-05T10:35:11.720Z,13.15
2016-03-05T10:36:11.723Z,13.63
2016-03-05T10:37:11.726Z,13.34
2016-03-05T10:38:11.729Z,13.34
2016-03-05T10:39:11.746Z,13.34
2016-03-05T10:40:11.749Z,13.34
2016-03-05T10:41:11.751Z,13.54
2016-03-05T10:42:11.770Z,13.82
2016-03-05T10:43:11.772Z,13.54
2016-03-05T10:44:11.776Z,13.82
2016-03-05T10:45:11.794Z,13.73
2016-03-05T10:46:11.796Z,13.92
2016-03-05T10:47:11.815Z,13.63
2016-03-05T10:48:11.817Z,13.92
2016-03-05T10:49:11.820Z,13.54
2016-03-05T10:50:11.823Z,13.73
2016-03-05T10:51:11.842Z,13.15
2016-03-05T10:52:11.844Z,13.63
2016-03-05T10:53:11.847Z,13.63
2016-03-05T10:54:11.850Z,13.63
2016-03-05T10:55:11.852Z,13.54
2016-03-05T10:56:11.870Z,13.63
2016-03-05T10:57:11.872Z,13.24
2016-03-05T10:58:11.876Z,13.54
2016-03-05T10:59:11.893Z,13.73
2016-03-05T11:00:11.913Z,13.63
2016-03-05T11:01:11.915Z,13.63
2016-03-05T11:02:11.902Z,13.63
2016-03-05T11:03:11.920Z,13.73
2016-03-05T11:04:11.923Z,13.73
2016-03-05T11:05:11.957Z,13.82
2016-03-05T11:06:11.944Z,13.54
2016-03-05T11:07:11.946Z,13.63
2016-03-05T11:08:11.966Z,13.73
2016-03-05T11:09:11.983Z,13.82
2016-03-05T11:10:11.954Z,13.82
2016-03-05T11:11:11.973Z,13.73
2016-03-05T11:12:12.006Z,14.31
2016-03-05T11:13:11.994Z,14.5
2016-03-05T11:14:11.996Z,14.67
2016-03-05T11:15:11.999Z,15.45
2016-03-05T11:16:12.002Z,16.11
2016-03-05T11:17:12.020Z,16
2016-03-05T11:18:12.023Z,15.72
2016-03-05T11:19:12.041Z,15.91
2016-03-05T11:20:12.028Z,16.29
2016-03-05T11:21:12.063Z,16.67
2016-03-05T11:22:12.034Z,16.47
2016-03-05T11:23:12.037Z,16.56
2016-03-05T11:24:12.039Z,17.14
2016-03-05T11:25:12.042Z,16.94
2016-03-05T11:26:12.028Z,17.81
2016-03-05T11:27:12.047Z,16.65
2016-03-05T11:28:12.049Z,16.56
2016-03-05T11:29:12.036Z,17.82
2016-03-05T11:30:12.040Z,17.52
2016-03-05T11:31:12.042Z,17.52
2016-03-05T11:32:12.045Z,17.71
2016-03-05T11:33:12.047Z,17.81
2016-03-05T11:34:12.050Z,17.81
2016-03-05T11:35:12.052Z,17.33
2016-03-05T11:36:11.899Z,18.86
2016-03-05T11:37:12.059Z,18.66
2016-03-05T11:38:12.046Z,19.62
2016-03-05T11:39:12.049Z,19.51
2016-03-05T11:40:12.035Z,18.75
2016-03-05T11:41:12.054Z,18.38
2016-03-05T11:42:12.040Z,18.1
2016-03-05T11:43:12.074Z,18.48
2016-03-05T11:44:12.046Z,18.76
2016-03-05T11:45:12.049Z,18.46
2016-03-05T11:46:12.037Z,18.57
2016-03-05T11:47:12.039Z,18.48
2016-03-05T11:48:12.042Z,18.28
2016-03-05T11:49:12.044Z,18.08
2016-03-05T11:50:12.048Z,17.8
2016-03-05T11:51:12.095Z,17.9
2016-03-05T11:52:12.037Z,18.18
2016-03-05T11:53:12.039Z,18.28
2016-03-05T11:54:12.042Z,18.08
2016-03-05T11:55:12.060Z,17.9
2016-03-05T11:56:12.047Z,17.99
2016-03-05T11:57:12.034Z,17.9
2016-03-05T11:58:12.036Z,17.9
2016-03-05T11:59:12.040Z,17.9
2016-03-05T12:00:12.058Z,18.48
2016-03-05T12:01:12.045Z,18.48
2016-03-05T12:02:12.047Z,18.48
2016-03-05T12:03:12.066Z,18.76
2016-03-05T12:04:12.053Z,18.66
2016-03-05T12:05:12.055Z,18.66
2016-03-05T12:06:12.044Z,18.18
2016-03-05T12:07:12.046Z,18.86
2016-03-05T12:08:12.049Z,18.08
2016-03-05T12:09:12.052Z,18.38
2016-03-05T12:10:12.038Z,18.46
2016-03-05T12:11:12.056Z,18.08
2016-03-05T12:12:12.043Z,18.19
2016-03-05T12:13:12.030Z,18.76
2016-03-05T12:14:12.032Z,18.57
2016-03-05T12:15:12.036Z,18.66
2016-03-05T12:16:12.038Z,18.76
2016-03-05T12:17:12.026Z,18.48
2016-03-05T12:18:12.028Z,18.08
2016-03-05T12:19:12.031Z,18.76
2016-03-05T12:20:12.034Z,18.56
2016-03-05T12:21:12.036Z,17.99
2016-03-05T12:22:12.024Z,17.8
2016-03-05T12:23:12.057Z,18.28
2016-03-05T12:24:12.045Z,18.37
2016-03-05T12:25:12.032Z,18.56
2016-03-05T12:26:12.034Z,18.66
2016-03-05T12:27:12.021Z,18.46
2016-03-05T12:28:12.024Z,18.95
2016-03-05T12:29:12.027Z,18.08
2016-03-05T12:30:12.030Z,18.85
2016-03-05T12:31:12.017Z,18.85
2016-03-05T12:32:12.019Z,18.66
2016-03-05T12:33:12.069Z,18.66
2016-03-05T12:34:12.040Z,18.66
2016-03-05T12:35:12.027Z,18.18
2016-03-05T12:36:12.014Z,18.48
2016-03-05T12:37:12.016Z,18.66
2016-03-05T12:38:12.020Z,18.85
2016-03-05T12:39:12.038Z,18.56
2016-03-05T12:40:12.010Z,19.04
2016-03-05T12:41:12.012Z,18.85
2016-03-05T12:42:12.015Z,18.85
2016-03-05T12:43:12.002Z,18.56
2016-03-05T12:44:12.004Z,18.66
2016-03-05T12:45:12.007Z,18.66
2016-03-05T12:46:12.010Z,18.56
2016-03-05T12:47:11.997Z,18.75
2016-03-05T12:48:12.015Z,18.56
2016-03-05T12:49:12.002Z,18.56
2016-03-05T12:50:12.004Z,19.23
2016-03-05T12:51:12.008Z,18.93
2016-03-05T12:52:11.995Z,18.65
2016-03-05T12:53:11.997Z,18.46